Report METAR

 

LIBD - Bari/Palese Macc, Italy
Distance from station: ESE 27km
Dati ricevuti: 26/09/2022 02:50
Sereno
Sereno
 Vento da S
Vento: S 6 km/h
Temperatura: 21°C
P.to Rugiada: 13°C
Umidità: 60%
Barometro: 1011 hPa
Summary: Sereno
Visibility: superiore a 10 km
2022/09/26 00:50 LIBD 260050Z 19003KT CAVOK 21/13 Q1011
LIBV - Gioia Del Colle, Italy
Distance from station: SE 63km
Dati ricevuti: 26/09/2022 01:55
Mist, Parz. nuvoloso
Mist, Parz. nuvoloso
 Vento da S
Vento: S 11 km/h
Temperatura: 19°C
P.to Rugiada: 19°C
Umidità: 100%
Barometro: 1012 hPa
Summary: Mist
Nuvole: Parz. nuvoloso
Visibility: 5 km
Cloud details: Parz. nuvoloso 305 m
2022/09/25 23:55 LIBV 252355Z 18006KT 4500 BR SCT010 19/19 Q1012
 
LIBA - Amendola (it-Afb, Italy
Distance from station: ONO 72km
Dati ricevuti: 26/09/2022 01:55
Pioviggine, Nuvoloso
Pioviggine, Nuvoloso
 Vento da SSO
Vento: SSO 6 km/h
Temperatura: 17°C
P.to Rugiada: 15°C
Umidità: 88%
Barometro: 1012 hPa
Summary: Pioviggine
Nuvole: Molto nuvoloso
Visibility: 10 km
Cloud details: Molto nuvoloso 1524 m
2022/09/25 23:55 LIBA 252355Z 20003KT 9999 -RA BKN050 17/15 Q1012
LIBF - Foggia/Gino Lisa, Italy
Distance from station: ONO 84km
Dati ricevuti: 25/09/2022 17:50
DATI Obsoleti
Pioviggine, Nuvoloso
Pioviggine, Nuvoloso
 Vento da SSO
Vento: SSO 17 km/h
Temperatura: 18°C
P.to Rugiada: 16°C
Umidità: 88%
Barometro: 1013 hPa
Summary: Pioviggine
Nuvole: Molto nuvoloso
Visibility: 10 km
Cloud details: Molto nuvoloso 1524 m
2022/09/25 15:50 LIBF 251550Z 20009KT 9999 -RA BKN050 18/16 Q1013
 
LIBH - Marina Di Ginosa, Italy
Distance from station: SSE 97km
Dati ricevuti: 25/09/2022 19:55
DATI Obsoleti
Sereno
Sereno
 Vento da SSE
Vento: SSE 22 km/h
Temperatura: 24°C
P.to Rugiada: 23°C
Umidità: 94%
Barometro: 1013 hPa
Summary: Sereno
Visibility: superiore a 10 km
2022/09/25 17:55 LIBH 251755Z 16012KT CAVOK 24/23 Q1013 RMK BKN SCT080 SCT100 QUK / QUL / VIS MAR 20 KM VIS MIN 9999
LIRT - Trevico, Italy
Distance from station: OSO 109km
Dati ricevuti: 23/09/2022 19:55
DATI Obsoleti
Sereno
Sereno
 Vento da E
Vento: E 11 km/h
Temperatura: 10°C
Temperatura Vento: 8°C
P.to Rugiada: 2°C
Umidità: 58%
Barometro: 1021 hPa
Summary: Sereno
Visibility: superiore a 10 km
2022/09/23 17:55 LIRT 231755Z 10006KT CAVOK 10/02 Q1021
 
LIBG - Grottaglie(Civ/A, Italy
Distance from station: SE 110km
Dati ricevuti: 25/09/2022 19:50
DATI Obsoleti
Molto nuvoloso
Molto nuvoloso
 Vento da SSE
Vento: SSE 11 km/h
Temperatura: 23°C
P.to Rugiada: 19°C
Umidità: 78%
Barometro: 1013 hPa
Nuvole: Molto nuvoloso
Visibility: 10 km
Cloud details: Few Clouds 457 m
Molto nuvoloso 762 m
2022/09/25 17:50 LIBG 251750Z 16006KT 9999 FEW015 BKN025 23/19 Q1013
LIBR - Brindisi/Casale, Italy
Distance from station: ESE 139km
Dati ricevuti: 26/09/2022 02:50
Sereno
Sereno
 Vento da S
Vento: S 19 km/h
Temperatura: 23°C
P.to Rugiada: 20°C
Umidità: 83%
Barometro: 1012 hPa
Summary: Sereno
Visibility: superiore a 10 km
2022/09/26 00:50 LIBR 260050Z 19010KT CAVOK 23/20 Q1012
 
LIRI - Pontecagnano (af, Italy
Distance from station: OSO 149km
Dati ricevuti: 25/09/2022 18:50
DATI Obsoleti
Molto nuvoloso
Molto nuvoloso
 Vento da E
Vento: E 9 km/h
Temperatura: 18°C
P.to Rugiada: 16°C
Umidità: 88%
Barometro: 1013 hPa
Nuvole: Molto nuvoloso
Visibility: 10 km
Cloud details: Molto nuvoloso 914 m
2022/09/25 16:50 LIRI 251650Z 08005KT 040V120 9999 BKN030 18/16 Q1013 RERA
LIBN - Lecce (it-Afb), Italy
Distance from station: SE 179km
Dati ricevuti: 26/09/2022 01:55
Parz. nuvoloso
Parz. nuvoloso
 Vento da S
Vento: S 26 km/h
Temperatura: 23°C
P.to Rugiada: 22°C
Umidità: 94%
Barometro: 1014 hPa
Nuvole: Parz. nuvoloso
Visibility: 10 km
Cloud details: Parz. nuvoloso 610 m
2022/09/25 23:55 LIBN 252355Z 17014KT 9999 SCT020 23/22 Q1014
 
LIRN - Naples/Capodichi, Italy
Distance from station: OSO 188km
Dati ricevuti: 26/09/2022 02:50
Molto nuvoloso
Molto nuvoloso
 Vento da OSO
Vento: OSO 13 km/h
Temperatura: 20°C
P.to Rugiada: 18°C
Umidità: 88%
Barometro: 1011 hPa
Nuvole: Molto nuvoloso
Visibility: 10 km
Cloud details: Few Clouds 610 m
Molto nuvoloso 1219 m
2022/09/26 00:50 LIRN 260050Z 25007KT 9999 FEW020 BKN040 20/18 Q1011 NOSIG